Time;durP1;ratioP1;P1;durP2;ratioP2;P2;SDS_P1;SDS_P2;PMS_P1;PMS_P2;Temp;Humidity;BMP_temperature;BMP_pressure;BME280_temperature;BME280_humidity;BME280_pressure;Samples;Min_cycle;Max_cycle;Signal;HPM_P1;HPM_P2
2024/01/29 00:00:16;;;;;;;35.88;24.23;;;2.90;89.10;;;;;;5034753;28;20033;-63
2024/01/29 00:02:43;;;;;;;35.95;26.23;;;2.90;88.70;;;;;;5034748;28;20471;-65
2024/01/29 00:05:08;;;;;;;38.35;25.67;;;2.80;87.90;;;;;;5034397;28;20072;-65
2024/01/29 00:07:34;;;;;;;39.63;27.38;;;2.90;87.80;;;;;;5034517;28;20472;-63
2024/01/29 00:10:00;;;;;;;35.03;23.88;;;2.80;87.30;;;;;;5034347;28;20075;-65
2024/01/29 00:12:25;;;;;;;33.03;23.27;;;2.90;88.40;;;;;;5034400;28;20031;-66
2024/01/29 00:14:51;;;;;;;33.28;23.60;;;2.80;88.00;;;;;;5034304;28;20018;-64
2024/01/29 00:17:17;;;;;;;30.90;21.70;;;2.80;88.20;;;;;;5034265;28;20064;-64
2024/01/29 00:19:42;;;;;;;30.92;21.73;;;2.80;88.50;;;;;;5034332;28;20028;-65
2024/01/29 00:22:08;;;;;;;30.75;22.52;;;2.80;90.00;;;;;;5034132;28;20116;-64
2024/01/29 00:24:34;;;;;;;32.08;23.15;;;2.80;89.00;;;;;;5033860;28;20018;-64
2024/01/29 00:27:00;;;;;;;30.08;22.40;;;2.70;87.40;;;;;;5034346;28;20396;-63
2024/01/29 00:29:25;;;;;;;31.33;22.33;;;2.70;87.40;;;;;;5032908;28;20028;-65
2024/01/29 00:31:51;;;;;;;30.33;21.75;;;2.70;86.90;;;;;;5034332;28;20017;-67
2024/01/29 00:34:17;;;;;;;34.47;23.33;;;2.60;87.00;;;;;;5034140;28;20033;-64
2024/01/29 00:36:42;;;;;;;25.95;20.10;;;2.60;86.50;;;;;;5033979;28;20040;-65
2024/01/29 00:39:09;;;;;;;38.88;25.15;;;2.60;86.70;;;;;;5032448;28;20021;-64
2024/01/29 00:41:38;;;;;;;29.38;20.95;;;2.50;86.70;;;;;;5033851;28;20061;-67
2024/01/29 00:44:03;;;;;;;33.25;23.75;;;2.50;88.20;;;;;;5033891;28;20028;-67
2024/01/29 00:46:29;;;;;;;29.02;19.88;;;2.50;89.20;;;;;;5033747;28;20021;-67
2024/01/29 00:48:55;;;;;;;27.33;18.70;;;2.50;88.60;;;;;;5033937;28;20018;-62
2024/01/29 00:51:21;;;;;;;30.52;20.98;;;2.50;87.90;;;;;;5033846;28;20025;-64
2024/01/29 00:53:47;;;;;;;37.13;23.23;;;2.50;87.40;;;;;;5033515;28;20026;-65
2024/01/29 00:56:13;;;;;;;24.42;19.02;;;2.50;88.00;;;;;;5033581;28;20537;-64
2024/01/29 00:58:43;;;;;;;27.52;20.15;;;2.40;89.20;;;;;;5033567;28;20017;-63
2024/01/29 01:01:09;;;;;;;27.63;19.95;;;2.40;89.40;;;;;;5033368;28;20391;-63
2024/01/29 01:03:35;;;;;;;24.15;17.17;;;2.40;88.60;;;;;;5032147;28;20551;-63
2024/01/29 01:06:00;;;;;;;23.95;17.00;;;2.40;88.60;;;;;;5032528;28;20108;-66
2024/01/29 01:08:26;;;;;;;28.50;20.00;;;2.40;88.40;;;;;;5033305;28;20021;-65
2024/01/29 01:10:52;;;;;;;24.50;17.50;;;2.40;87.10;;;;;;5033393;28;20018;-63
2024/01/29 01:13:17;;;;;;;24.10;17.15;;;2.40;87.40;;;;;;5033538;28;20421;-66
2024/01/29 01:15:43;;;;;;;26.13;17.50;;;2.30;87.40;;;;;;5033378;28;20106;-64
2024/01/29 01:18:09;;;;;;;25.25;16.50;;;2.40;86.90;;;;;;5033233;28;20100;-66
2024/01/29 01:20:35;;;;;;;28.25;20.00;;;2.30;86.80;;;;;;5033368;28;20037;-64
2024/01/29 01:23:01;;;;;;;25.08;17.10;;;2.40;86.00;;;;;;5033205;28;20022;-67
2024/01/29 01:25:27;;;;;;;22.70;16.88;;;2.30;86.80;;;;;;5032048;28;20022;-66
2024/01/29 01:27:53;;;;;;;25.48;17.23;;;2.30;86.90;;;;;;5033365;28;20032;-65
2024/01/29 01:30:21;;;;;;;22.85;16.65;;;2.30;86.40;;;;;;5033327;28;20026;-63
2024/01/29 01:32:47;;;;;;;21.90;16.00;;;2.20;86.80;;;;;;5033302;28;20025;-65
2024/01/29 01:35:12;;;;;;;25.60;16.90;;;2.30;87.30;;;;;;5033235;28;20449;-66
2024/01/29 01:37:38;;;;;;;24.58;17.33;;;2.20;87.20;;;;;;5033142;28;20018;-65
2024/01/29 01:40:04;;;;;;;24.48;17.58;;;2.20;87.00;;;;;;5033219;28;20049;-66
2024/01/29 01:42:30;;;;;;;23.40;15.88;;;2.20;88.60;;;;;;5033009;28;20479;-64
2024/01/29 01:44:56;;;;;;;19.75;14.80;;;2.20;88.10;;;;;;5033187;28;20017;-61
2024/01/29 01:47:22;;;;;;;21.83;16.05;;;2.10;88.90;;;;;;5033083;28;20028;-66
2024/01/29 01:49:48;;;;;;;19.98;14.43;;;2.10;88.30;;;;;;5032952;28;20018;-64
2024/01/29 01:52:17;;;;;;;22.83;16.35;;;2.00;89.30;;;;;;5032909;28;20057;-66
2024/01/29 01:54:43;;;;;;;18.95;14.18;;;2.00;88.30;;;;;;5033032;28;20357;-66
2024/01/29 01:57:10;;;;;;;23.80;15.65;;;2.00;89.20;;;;;;5032935;28;20119;-64
2024/01/29 01:59:40;;;;;;;19.33;13.52;;;2.00;88.70;;;;;;5033095;28;20024;-61
2024/01/29 02:02:08;;;;;;;18.58;13.13;;;2.00;88.50;;;;;;5032876;28;20025;-63
2024/01/29 02:04:33;;;;;;;19.92;14.40;;;2.00;88.80;;;;;;5032834;28;20488;-62
2024/01/29 02:06:59;;;;;;;17.85;13.68;;;2.00;87.90;;;;;;5032703;28;20029;-65
2024/01/29 02:09:26;;;;;;;19.90;14.02;;;2.00;87.20;;;;;;5031690;28;20483;-63
2024/01/29 02:11:52;;;;;;;21.33;14.18;;;2.00;87.20;;;;;;5035883;28;20387;-65
2024/01/29 02:14:18;;;;;;;19.63;14.10;;;1.90;87.90;;;;;;5036553;28;20022;-66
2024/01/29 02:16:43;;;;;;;25.58;17.60;;;1.90;87.40;;;;;;5036691;28;20020;-63
2024/01/29 02:19:16;;;;;;;30.05;21.45;;;2.00;87.40;;;;;;5036474;28;20101;-63
2024/01/29 02:21:42;;;;;;;21.38;15.45;;;1.90;89.50;;;;;;5036381;28;20033;-65
2024/01/29 02:24:08;;;;;;;20.08;14.95;;;1.80;90.40;;;;;;5036488;28;20029;-64
2024/01/29 02:26:34;;;;;;;21.63;14.85;;;1.80;90.40;;;;;;5036355;28;20376;-66
2024/01/29 02:28:59;;;;;;;25.85;16.98;;;1.80;91.00;;;;;;5035148;28;20029;-66
2024/01/29 02:31:25;;;;;;;28.52;19.23;;;1.80;90.40;;;;;;5036415;28;20026;-64
2024/01/29 02:33:51;;;;;;;66.47;40.35;;;1.80;91.00;;;;;;5036204;28;20083;-62
2024/01/29 02:36:16;;;;;;;53.85;35.83;;;1.60;92.40;;;;;;5036161;28;20277;-65
2024/01/29 02:38:42;;;;;;;73.38;46.53;;;1.50;93.60;;;;;;5036271;28;20021;-63
2024/01/29 02:41:09;;;;;;;71.43;43.17;;;1.40;94.40;;;;;;5036101;28;20061;-66
2024/01/29 02:43:34;;;;;;;53.03;34.10;;;1.30;94.40;;;;;;5035996;28;20022;-67
2024/01/29 02:46:00;;;;;;;53.53;34.95;;;1.40;94.20;;;;;;5034883;28;20025;-66
2024/01/29 02:48:26;;;;;;;45.60;29.77;;;1.40;94.00;;;;;;5035965;28;20029;-64
2024/01/29 02:50:52;;;;;;;42.78;28.23;;;1.50;92.70;;;;;;5035847;28;20498;-65
2024/01/29 02:53:18;;;;;;;39.42;26.38;;;1.50;92.70;;;;;;5035951;28;20097;-65
2024/01/29 02:55:43;;;;;;;32.72;24.10;;;1.60;93.00;;;;;;5035879;28;20108;-66
2024/01/29 02:58:09;;;;;;;31.52;22.17;;;1.60;92.10;;;;;;5035731;28;20480;-65
2024/01/29 03:00:35;;;;;;;32.03;21.55;;;1.60;91.60;;;;;;5034461;28;20048;-65
2024/01/29 03:03:00;;;;;;;27.55;19.55;;;1.60;91.80;;;;;;5035733;28;20078;-64
2024/01/29 03:05:26;;;;;;;23.05;18.08;;;1.60;92.10;;;;;;5035401;28;20094;-62
2024/01/29 03:07:52;;;;;;;24.15;16.90;;;1.60;91.70;;;;;;5035899;28;20136;-64
2024/01/29 03:10:18;;;;;;;24.15;15.98;;;1.60;91.60;;;;;;5035724;28;20483;-65
2024/01/29 03:12:44;;;;;;;20.75;15.45;;;1.60;91.30;;;;;;5035577;28;20025;-66
2024/01/29 03:15:09;;;;;;;22.65;15.93;;;1.60;91.50;;;;;;5035373;28;20380;-66
2024/01/29 03:17:35;;;;;;;24.40;16.88;;;1.60;91.10;;;;;;5035614;28;20075;-65
2024/01/29 03:20:01;;;;;;;19.75;14.52;;;1.50;91.30;;;;;;5035276;28;20033;-64
2024/01/29 03:22:26;;;;;;;18.73;13.60;;;1.50;91.60;;;;;;5034622;28;20200;-63
2024/01/29 03:24:52;;;;;;;17.88;12.93;;;1.40;91.80;;;;;;5035174;28;20067;-64
2024/01/29 03:27:18;;;;;;;17.83;13.00;;;1.40;91.50;;;;;;5035302;28;20092;-62
2024/01/29 03:29:43;;;;;;;16.17;11.88;;;1.40;90.60;;;;;;5034953;28;20439;-67
2024/01/29 03:32:09;;;;;;;18.08;12.48;;;1.40;90.50;;;;;;5035237;28;20025;-62
2024/01/29 03:34:35;;;;;;;17.30;13.85;;;1.30;90.70;;;;;;5035080;28;20029;-65
2024/01/29 03:37:00;;;;;;;19.08;12.63;;;1.30;89.60;;;;;;5035065;28;20032;-64
2024/01/29 03:39:26;;;;;;;14.65;12.13;;;1.30;89.40;;;;;;5035090;28;20026;-68
2024/01/29 03:41:52;;;;;;;17.95;13.43;;;1.30;89.50;;;;;;5034910;28;20038;-62
2024/01/29 03:44:18;;;;;;;21.20;14.45;;;1.30;89.00;;;;;;5035021;28;20494;-62
2024/01/29 03:46:43;;;;;;;16.40;12.60;;;1.30;89.30;;;;;;5034821;28;20392;-65
2024/01/29 03:49:09;;;;;;;17.92;11.95;;;1.30;89.90;;;;;;5034858;28;20018;-63
2024/01/29 03:51:34;;;;;;;16.88;11.20;;;1.30;90.40;;;;;;5034794;28;20026;-66
2024/01/29 03:54:00;;;;;;;17.55;11.95;;;1.30;90.50;;;;;;5033508;28;20109;-63
2024/01/29 03:56:26;;;;;;;13.75;10.55;;;1.30;90.20;;;;;;5034794;28;20392;-63
2024/01/29 03:58:52;;;;;;;13.88;10.70;;;1.20;90.10;;;;;;5034681;28;20049;-63
2024/01/29 04:01:28;;;;;;;19.52;13.02;;;1.20;89.70;;;;;;5034478;28;20035;-64
2024/01/29 04:03:54;;;;;;;15.00;11.07;;;1.20;88.80;;;;;;5033232;28;20077;-64
2024/01/29 04:06:20;;;;;;;14.75;10.20;;;1.20;90.30;;;;;;5034551;28;20025;-67
2024/01/29 04:08:45;;;;;;;12.85;10.48;;;1.10;90.70;;;;;;5034404;28;20014;-62
2024/01/29 04:11:11;;;;;;;18.13;12.38;;;1.10;90.90;;;;;;5034527;28;20021;-64
2024/01/29 04:13:39;;;;;;;15.10;9.68;;;1.20;90.20;;;;;;5034431;28;20556;-64
2024/01/29 04:16:08;;;;;;;14.43;10.60;;;1.10;91.20;;;;;;5032892;28;20037;-65
2024/01/29 04:18:33;;;;;;;13.77;10.35;;;1.10;91.00;;;;;;5034342;28;20079;-64
2024/01/29 04:20:59;;;;;;;12.80;8.43;;;1.10;90.10;;;;;;5034259;28;20384;-62
2024/01/29 04:23:25;;;;;;;12.00;8.68;;;1.10;90.40;;;;;;5034170;28;20109;-66
2024/01/29 04:25:50;;;;;;;12.55;9.15;;;1.10;90.60;;;;;;5034318;28;20028;-66
2024/01/29 04:28:16;;;;;;;13.02;9.73;;;1.00;90.50;;;;;;5034193;28;20443;-61
2024/01/29 04:30:42;;;;;;;13.15;9.88;;;1.00;89.80;;;;;;5032627;28;20108;-67
2024/01/29 04:33:08;;;;;;;16.58;10.98;;;1.00;88.50;;;;;;5033934;28;20100;-67
2024/01/29 04:35:35;;;;;;;15.98;10.88;;;1.00;88.10;;;;;;5033333;28;20100;-63
2024/01/29 04:38:00;;;;;;;14.27;10.27;;;1.00;88.50;;;;;;5032645;28;20502;-61
2024/01/29 04:40:26;;;;;;;14.82;11.15;;;1.00;88.70;;;;;;5032561;28;20053;-64
2024/01/29 04:42:52;;;;;;;16.00;11.80;;;0.90;89.20;;;;;;5033953;28;20025;-66
2024/01/29 04:45:17;;;;;;;13.88;9.63;;;0.90;89.00;;;;;;5033748;28;20060;-63
2024/01/29 04:47:43;;;;;;;14.95;10.07;;;0.90;90.00;;;;;;5033758;28;20077;-64
2024/01/29 04:50:09;;;;;;;13.93;10.20;;;0.80;90.50;;;;;;5033793;28;20021;-62
2024/01/29 04:52:35;;;;;;;14.68;9.98;;;0.80;90.50;;;;;;5033870;28;20048;-64
2024/01/29 04:55:01;;;;;;;16.73;12.25;;;0.80;90.50;;;;;;5033549;28;20026;-64
2024/01/29 04:57:26;;;;;;;16.83;11.60;;;0.90;90.40;;;;;;5033783;28;20076;-62
2024/01/29 04:59:52;;;;;;;11.88;9.27;;;0.80;90.60;;;;;;5033629;28;20423;-61
2024/01/29 05:02:18;;;;;;;14.90;10.18;;;0.80;90.90;;;;;;5033386;28;20502;-62
2024/01/29 05:04:44;;;;;;;12.48;9.77;;;0.70;91.00;;;;;;5033515;28;20049;-67
2024/01/29 05:07:10;;;;;;;11.30;9.00;;;0.80;90.70;;;;;;5033598;28;20028;-60
2024/01/29 05:09:35;;;;;;;14.30;10.05;;;0.80;90.30;;;;;;5033420;28;20022;-61
2024/01/29 05:12:01;;;;;;;12.23;9.23;;;0.80;90.10;;;;;;5033444;28;20057;-63
2024/01/29 05:14:28;;;;;;;14.73;10.38;;;0.70;90.80;;;;;;5033313;28;20411;-64
2024/01/29 05:16:53;;;;;;;11.35;8.65;;;0.70;91.30;;;;;;5033495;28;20444;-62
2024/01/29 05:19:19;;;;;;;11.10;9.02;;;0.70;91.20;;;;;;5033238;28;20049;-64
2024/01/29 05:21:47;;;;;;;18.73;12.80;;;0.70;90.60;;;;;;5033280;28;20045;-63
2024/01/29 05:24:13;;;;;;;13.52;10.27;;;0.70;90.20;;;;;;5033382;28;20100;-67
2024/01/29 05:26:39;;;;;;;14.75;10.27;;;0.60;90.50;;;;;;5033141;28;20056;-65
2024/01/29 05:29:04;;;;;;;13.02;10.45;;;0.60;91.10;;;;;;5033178;28;20068;-65
2024/01/29 05:31:30;;;;;;;12.48;8.90;;;0.60;91.50;;;;;;5033284;28;20421;-63
2024/01/29 05:33:56;;;;;;;12.10;9.05;;;0.60;91.60;;;;;;5033130;28;20026;-66
2024/01/29 05:36:21;;;;;;;14.60;10.68;;;0.60;91.20;;;;;;5033354;28;20018;-61
2024/01/29 05:38:47;;;;;;;15.00;11.52;;;0.60;90.80;;;;;;5033150;28;20071;-63
2024/01/29 05:41:13;;;;;;;15.23;10.88;;;0.60;90.50;;;;;;5033015;28;20492;-64
2024/01/29 05:43:39;;;;;;;17.42;11.23;;;0.70;90.50;;;;;;5031757;28;20021;-64
2024/01/29 05:46:04;;;;;;;17.73;11.57;;;0.70;90.60;;;;;;5033779;28;20021;-65
2024/01/29 05:48:30;;;;;;;25.98;16.20;;;0.70;90.10;;;;;;5037125;28;20026;-64
2024/01/29 05:50:56;;;;;;;18.40;12.90;;;0.60;90.50;;;;;;5037096;28;20033;-67
2024/01/29 05:53:22;;;;;;;18.10;13.35;;;0.50;91.20;;;;;;5037005;28;20033;-65
2024/01/29 05:55:48;;;;;;;16.55;11.65;;;0.50;91.80;;;;;;5037084;28;20387;-63
2024/01/29 05:58:14;;;;;;;15.15;10.68;;;0.40;92.20;;;;;;5036645;28;20071;-65
2024/01/29 06:00:40;;;;;;;17.85;11.95;;;0.40;92.50;;;;;;5037101;28;20075;-66
2024/01/29 06:03:06;;;;;;;67.18;44.72;;;0.50;92.30;;;;;;5036834;28;20025;-63
2024/01/29 06:05:31;;;;;;;45.42;32.45;;;0.50;93.20;;;;;;5036628;28;20049;-66
2024/01/29 06:07:57;;;;;;;43.80;28.92;;;0.40;93.80;;;;;;5035563;28;20049;-63
2024/01/29 06:10:23;;;;;;;47.55;31.73;;;0.40;93.90;;;;;;5036760;28;20025;-67
2024/01/29 06:12:48;;;;;;;52.22;34.20;;;0.50;93.70;;;;;;5036524;28;20052;-66
2024/01/29 06:15:14;;;;;;;49.03;35.28;;;0.50;93.40;;;;;;5036424;28;20084;-63
2024/01/29 06:17:40;;;;;;;49.63;32.63;;;0.50;93.60;;;;;;5036645;28;20017;-66
2024/01/29 06:20:07;;;;;;;46.22;32.55;;;0.50;93.60;;;;;;5036426;28;20033;-65
2024/01/29 06:22:33;;;;;;;43.55;30.00;;;0.60;93.50;;;;;;5036513;28;20128;-66
2024/01/29 06:24:58;;;;;;;43.03;28.52;;;0.60;92.30;;;;;;5036581;28;20060;-66
2024/01/29 06:27:24;;;;;;;37.65;26.25;;;0.70;91.30;;;;;;5034996;28;20125;-61
2024/01/29 06:29:50;;;;;;;32.28;22.85;;;0.70;90.40;;;;;;5035017;28;20022;-62
2024/01/29 06:32:16;;;;;;;31.88;23.00;;;0.70;90.40;;;;;;5036201;28;20369;-66
2024/01/29 06:34:42;;;;;;;30.13;20.88;;;0.70;90.20;;;;;;5045347;28;20100;-65
2024/01/29 06:37:07;;;;;;;27.13;20.02;;;0.70;90.40;;;;;;5036219;28;20041;-65
2024/01/29 06:39:33;;;;;;;36.13;24.08;;;0.70;90.50;;;;;;5039648;28;20021;-65
2024/01/29 06:41:59;;;;;;;32.67;21.98;;;0.70;90.30;;;;;;5041858;28;20059;-67
2024/01/29 06:44:25;;;;;;;34.08;22.67;;;0.70;90.70;;;;;;5038949;28;21420;-68
2024/01/29 06:46:51;;;;;;;40.50;26.30;;;0.70;90.90;;;;;;5040271;28;20025;-65
2024/01/29 06:49:28;;;;;;;32.97;21.95;;;0.70;91.00;;;;;;5044126;28;20029;-70
2024/01/29 06:51:54;;;;;;;33.63;21.77;;;0.70;91.40;;;;;;5046627;28;20483;-68
2024/01/29 06:54:20;;;;;;;30.05;20.25;;;0.80;91.60;;;;;;5044195;28;20039;-67
2024/01/29 06:56:46;;;;;;;37.50;23.48;;;0.80;91.40;;;;;;5038702;28;20014;-71
2024/01/29 06:59:19;;;;;;;62.50;38.72;;;1.00;91.00;;;;;;5037505;28;21041;-65
2024/01/29 07:01:49;;;;;;;97.25;60.95;;;0.90;90.80;;;;;;5042345;28;20136;-66
2024/01/29 07:04:14;;;;;;;154.13;98.05;;;0.90;91.80;;;;;;5036988;28;21631;-68
2024/01/29 07:06:40;;;;;;;98.47;64.35;;;0.80;92.80;;;;;;5042287;28;20026;-67
2024/01/29 07:09:06;;;;;;;94.75;63.17;;;0.80;92.90;;;;;;5036815;28;20096;-66
2024/01/29 07:11:32;;;;;;;136.63;81.35;;;0.90;92.60;;;;;;5045741;28;20025;-68
2024/01/29 07:13:58;;;;;;;129.07;78.95;;;1.00;92.20;;;;;;5052383;28;20094;-69
2024/01/29 07:16:24;;;;;;;184.32;109.38;;;1.10;91.90;;;;;;5038996;28;20034;-68
2024/01/29 07:18:49;;;;;;;168.55;106.07;;;1.20;91.70;;;;;;5036462;28;20480;-66
2024/01/29 07:21:15;;;;;;;188.68;123.45;;;1.20;91.80;;;;;;5040544;28;20056;-67
2024/01/29 07:23:41;;;;;;;190.60;116.85;;;1.20;92.10;;;;;;5039366;28;20028;-67
2024/01/29 07:26:06;;;;;;;145.38;95.80;;;1.20;92.30;;;;;;5043010;28;20020;-65
2024/01/29 07:28:35;;;;;;;134.73;88.97;;;1.20;92.20;;;;;;5052436;28;20082;-68
2024/01/29 07:31:01;;;;;;;132.02;85.68;;;1.30;92.40;;;;;;5043591;28;20132;-69
2024/01/29 07:33:27;;;;;;;188.93;121.63;;;1.50;91.80;;;;;;5042509;28;20118;-65
2024/01/29 07:35:52;;;;;;;219.95;140.55;;;1.60;91.10;;;;;;5049981;28;20035;-67
2024/01/29 07:38:18;;;;;;;243.20;158.90;;;1.50;92.00;;;;;;5036150;28;20478;-71
2024/01/29 07:40:44;;;;;;;257.83;158.25;;;1.50;92.50;;;;;;5036070;28;20033;-67
2024/01/29 07:43:10;;;;;;;252.77;165.10;;;1.70;92.50;;;;;;5038893;28;20102;-69
2024/01/29 07:45:35;;;;;;;257.75;172.95;;;2.00;91.80;;;;;;5038172;28;20021;-68
2024/01/29 07:48:04;;;;;;;233.88;154.13;;;3.20;89.10;;;;;;5040251;28;20488;-67
2024/01/29 07:50:30;;;;;;;217.07;150.23;;;5.10;73.50;;;;;;5042729;28;20045;-65
2024/01/29 07:52:56;;;;;;;191.07;132.93;;;7.00;56.60;;;;;;5036454;28;20516;-66
2024/01/29 07:55:23;;;;;;;168.77;119.63;;;8.70;51.80;;;;;;5051201;28;20029;-67
2024/01/29 07:57:49;;;;;;;147.35;106.75;;;10.30;47.30;;;;;;5041248;28;20116;-65
2024/01/29 08:00:15;;;;;;;133.70;95.22;;;11.70;43.90;;;;;;5035473;28;20051;-65
2024/01/29 08:02:41;;;;;;;161.45;115.88;;;12.90;39.90;;;;;;5039020;28;20064;-68
2024/01/29 08:05:10;;;;;;;139.65;104.50;;;13.30;36.80;;;;;;5042933;28;20041;-67
2024/01/29 08:07:35;;;;;;;127.47;93.65;;;13.40;35.70;;;;;;5039659;28;20029;-63
2024/01/29 08:10:05;;;;;;;134.98;104.28;;;13.30;35.90;;;;;;5041677;28;20039;-64
2024/01/29 08:12:47;;;;;;;;;;;;;;;;;;;;;
2024/01/29 08:15:15;;;;;;;110.90;89.27;;;13.60;36.40;;;;;;5031753;28;20305;-65
2024/01/29 08:17:41;;;;;;;96.57;79.15;;;14.40;35.20;;;;;;5029987;28;20305;-67
2024/01/29 08:20:07;;;;;;;91.68;73.45;;;15.10;35.00;;;;;;5029287;28;20037;-69
2024/01/29 08:22:33;;;;;;;94.93;74.15;;;15.90;32.90;;;;;;5037743;28;20120;-66
2024/01/29 08:24:59;;;;;;;67.43;58.63;;;16.40;31.10;;;;;;5035854;28;20456;-65
2024/01/29 08:27:27;;;;;;;69.10;55.75;;;16.50;31.80;;;;;;5042912;28;20033;-68
2024/01/29 08:29:54;;;;;;;74.40;58.80;;;17.00;31.00;;;;;;5042486;28;20060;-68
2024/01/29 08:32:21;;;;;;;60.13;51.70;;;17.20;30.10;;;;;;5043768;28;20055;-65
2024/01/29 08:34:48;;;;;;;51.63;44.83;;;17.30;30.10;;;;;;5036773;28;20036;-66
2024/01/29 08:37:13;;;;;;;46.72;41.60;;;17.60;30.70;;;;;;5044869;28;20029;-64
2024/01/29 08:39:39;;;;;;;49.42;42.70;;;18.00;30.60;;;;;;5051654;28;20072;-66
2024/01/29 08:42:06;;;;;;;43.35;38.65;;;18.50;28.90;;;;;;5049639;28;20032;-68
2024/01/29 08:44:32;;;;;;;38.05;33.10;;;18.60;29.10;;;;;;5042700;28;20037;-71
2024/01/29 08:46:58;;;;;;;37.42;33.13;;;18.70;29.10;;;;;;5041106;28;20124;-71
2024/01/29 08:49:23;;;;;;;35.17;31.38;;;18.80;28.90;;;;;;5030944;28;20104;-68
2024/01/29 08:51:49;;;;;;;33.47;29.90;;;18.90;28.50;;;;;;5029913;28;20027;-69
2024/01/29 08:54:15;;;;;;;30.88;27.38;;;18.80;28.50;;;;;;5041943;28;20039;-68
2024/01/29 08:56:41;;;;;;;31.40;27.45;;;18.60;29.40;;;;;;5035412;28;20117;-69
2024/01/29 08:59:07;;;;;;;32.75;29.15;;;18.70;29.20;;;;;;5052906;28;20100;-69
2024/01/29 09:01:33;;;;;;;30.83;26.42;;;18.80;30.00;;;;;;5040050;28;20133;-72
2024/01/29 09:03:59;;;;;;;28.58;25.52;;;18.80;29.10;;;;;;5033285;28;20053;-70
2024/01/29 09:06:25;;;;;;;35.67;31.38;;;18.60;29.80;;;;;;5032462;28;20365;-67
2024/01/29 09:08:50;;;;;;;52.55;45.33;;;18.50;30.10;;;;;;5034127;28;20445;-65
2024/01/29 09:11:16;;;;;;;46.22;40.90;;;18.30;29.60;;;;;;5032547;28;20025;-65
2024/01/29 09:13:42;;;;;;;42.78;38.17;;;18.00;30.90;;;;;;5036397;28;20385;-67
2024/01/29 09:16:09;;;;;;;39.78;35.38;;;17.80;32.00;;;;;;5046372;28;20029;-67
2024/01/29 09:18:35;;;;;;;38.08;33.97;;;17.70;30.90;;;;;;5052668;28;20029;-69
2024/01/29 09:21:00;;;;;;;34.88;31.10;;;17.60;31.00;;;;;;5044264;28;20029;-65
2024/01/29 09:23:29;;;;;;;36.65;32.85;;;17.40;31.00;;;;;;5032814;28;20029;-65
2024/01/29 09:25:55;;;;;;;36.13;32.42;;;17.40;31.90;;;;;;5032083;28;20029;-67
2024/01/29 09:28:21;;;;;;;42.90;38.45;;;17.30;31.50;;;;;;5034959;28;20029;-70
2024/01/29 09:30:47;;;;;;;41.03;36.88;;;17.10;31.00;;;;;;5033059;28;20022;-67
2024/01/29 09:33:13;;;;;;;42.60;38.25;;;16.60;33.60;;;;;;5032238;28;20022;-67
2024/01/29 09:35:38;;;;;;;40.00;36.00;;;16.40;32.60;;;;;;5037141;28;20541;-66
2024/01/29 09:38:04;;;;;;;44.00;39.50;;;16.00;33.80;;;;;;5039623;28;20484;-68
2024/01/29 09:40:30;;;;;;;41.58;37.35;;;15.90;33.40;;;;;;5033285;28;20108;-65
2024/01/29 09:42:57;;;;;;;42.83;38.42;;;15.80;33.40;;;;;;5032570;28;20018;-66
2024/01/29 09:45:23;;;;;;;41.00;36.80;;;15.60;34.50;;;;;;5031888;28;20037;-68
2024/01/29 09:47:51;;;;;;;36.40;32.67;;;15.70;34.20;;;;;;5047850;28;20394;-66
2024/01/29 09:50:19;;;;;;;35.85;32.05;;;15.70;34.00;;;;;;5051600;28;20068;-67
2024/01/29 09:52:48;;;;;;;32.88;29.60;;;15.70;34.60;;;;;;5041716;28;20061;-69
2024/01/29 09:55:14;;;;;;;32.28;29.05;;;15.80;34.60;;;;;;5032659;28;20045;-66
2024/01/29 09:57:39;;;;;;;29.48;26.42;;;15.90;34.10;;;;;;5031402;28;20056;-69
2024/01/29 10:00:06;;;;;;;27.83;24.98;;;16.00;33.80;;;;;;5032847;28;20025;-69
2024/01/29 10:02:36;;;;;;;23.75;21.20;;;16.10;34.80;;;;;;5032685;28;20040;-68
2024/01/29 10:05:08;;;;;;;22.00;19.90;;;16.20;34.00;;;;;;5032257;28;20092;-67
2024/01/29 10:07:34;;;;;;;21.50;19.40;;;16.30;33.90;;;;;;5048459;28;20033;-66
2024/01/29 10:10:13;;;;;;;22.27;19.95;;;16.50;32.60;;;;;;5033039;28;20136;-66
2024/01/29 10:12:39;;;;;;;19.25;17.40;;;16.50;33.80;;;;;;5032804;28;20026;-69
2024/01/29 10:15:05;;;;;;;18.23;16.48;;;16.60;34.70;;;;;;5032937;28;20538;-69
2024/01/29 10:17:32;;;;;;;18.00;16.30;;;17.00;32.70;;;;;;5047133;28;20051;-68
2024/01/29 10:19:58;;;;;;;16.42;14.82;;;17.20;32.40;;;;;;5052842;28;20031;-69
2024/01/29 10:22:27;;;;;;;16.60;14.95;;;17.20;32.20;;;;;;5049194;28;20037;-69
2024/01/29 10:25:04;;;;;;;18.25;16.33;;;17.20;32.10;;;;;;5047896;28;20036;-65
2024/01/29 10:27:30;;;;;;;27.38;24.60;;;17.30;31.70;;;;;;5032725;28;20029;-67
2024/01/29 10:29:56;;;;;;;24.85;22.15;;;17.20;32.10;;;;;;5038005;28;20423;-69
2024/01/29 10:32:22;;;;;;;20.75;18.65;;;16.90;32.30;;;;;;5042822;28;20033;-68
2024/01/29 10:34:48;;;;;;;21.05;18.75;;;16.60;33.20;;;;;;5041188;28;20047;-66
2024/01/29 10:37:16;;;;;;;19.17;17.15;;;16.30;33.80;;;;;;5046174;28;20134;-68
2024/01/29 10:39:42;;;;;;;22.60;20.20;;;16.50;33.80;;;;;;5048738;28;20514;-66
2024/01/29 10:42:09;;;;;;;22.27;19.35;;;16.40;32.80;;;;;;5047467;28;20041;-64
2024/01/29 10:44:37;;;;;;;20.90;18.73;;;16.20;33.80;;;;;;5043906;28;20009;-67
2024/01/29 10:47:18;;;;;;;18.63;16.75;;;16.20;34.20;;;;;;5037805;28;20060;-68
2024/01/29 10:49:44;;;;;;;17.05;15.32;;;16.70;34.30;;;;;;5039516;28;20087;-68
2024/01/29 10:52:12;;;;;;;15.63;14.05;;;16.90;32.30;;;;;;5040960;28;20090;-68
2024/01/29 10:54:39;;;;;;;15.18;13.68;;;17.10;33.40;;;;;;5037449;28;20086;-66
2024/01/29 10:57:10;;;;;;;14.40;13.00;;;17.50;32.90;;;;;;5045512;28;20033;-69
2024/01/29 10:59:38;;;;;;;13.52;12.23;;;17.80;31.60;;;;;;5036704;28;20040;-67
2024/01/29 11:02:05;;;;;;;13.25;12.05;;;18.00;31.70;;;;;;5034924;28;20029;-69
2024/01/29 11:04:42;;;;;;;11.50;10.40;;;18.30;32.30;;;;;;5040460;28;20058;-67
2024/01/29 11:07:22;;;;;;;10.57;9.63;;;18.60;31.40;;;;;;5032172;28;20060;-68
2024/01/29 11:10:06;;;;;;;10.95;9.85;;;18.40;29.70;;;;;;5053082;28;20025;-66
2024/01/29 11:12:33;;;;;;;;;;;18.00;31.00;;;;;;5037351;28;20086;-68
2024/01/29 11:15:01;;;;;;;9.57;8.68;;;18.00;30.20;;;;;;5033164;28;19909;-66
2024/01/29 11:17:28;;;;;;;9.80;8.60;;;17.80;30.40;;;;;;5041384;28;20472;-64
2024/01/29 11:19:58;;;;;;;8.70;7.90;;;17.80;30.40;;;;;;5028223;28;20051;-64
2024/01/29 11:22:34;;;;;;;9.68;8.77;;;17.80;30.00;;;;;;5033415;28;20025;-68
2024/01/29 11:25:06;;;;;;;10.35;9.40;;;17.80;30.50;;;;;;5039404;28;20021;-66
2024/01/29 11:27:32;;;;;;;10.43;9.43;;;17.60;30.30;;;;;;5031969;28;20409;-66
2024/01/29 11:29:57;;;;;;;5.07;4.57;;;17.40;29.90;;;;;;5044194;28;20025;-67
2024/01/29 11:32:23;;;;;;;6.00;5.35;;;16.90;29.90;;;;;;5051227;28;20081;-66
2024/01/29 11:34:49;;;;;;;5.80;5.30;;;16.40;30.10;;;;;;5047886;28;20029;-67
2024/01/29 11:37:26;;;;;;;6.72;5.85;;;16.00;30.30;;;;;;5051328;28;20051;-67
2024/01/29 11:39:52;;;;;;;7.18;6.47;;;15.90;31.80;;;;;;5051079;28;20025;-66
2024/01/29 11:42:18;;;;;;;9.00;8.20;;;15.80;31.50;;;;;;5052828;28;20024;-65
2024/01/29 11:44:44;;;;;;;8.35;7.20;;;15.40;31.90;;;;;;5053227;28;20403;-65
2024/01/29 11:47:10;;;;;;;8.20;7.40;;;15.10;33.20;;;;;;5053621;28;20363;-65
2024/01/29 11:49:36;;;;;;;7.65;6.95;;;15.00;33.10;;;;;;5053960;28;20017;-66
2024/01/29 11:52:01;;;;;;;7.40;6.70;;;14.90;32.90;;;;;;5052918;28;20036;-65
2024/01/29 11:54:27;;;;;;;7.22;6.50;;;14.90;34.10;;;;;;5052980;28;20078;-65
2024/01/29 11:56:53;;;;;;;6.82;5.90;;;14.90;34.10;;;;;;5053193;28;20025;-68
2024/01/29 11:59:18;;;;;;;6.55;5.50;;;15.10;35.50;;;;;;5053605;28;20021;-65
2024/01/29 12:01:44;;;;;;;5.00;4.50;;;15.10;34.60;;;;;;5041570;28;20120;-66
2024/01/29 12:04:11;;;;;;;8.45;7.30;;;15.00;34.00;;;;;;5042567;28;20037;-67
2024/01/29 12:06:38;;;;;;;10.55;7.90;;;15.10;32.10;;;;;;5041719;28;20095;-65
2024/01/29 12:09:07;;;;;;;9.43;8.52;;;14.90;34.10;;;;;;5033585;28;20014;-67
2024/01/29 12:11:33;;;;;;;12.25;10.80;;;15.00;33.50;;;;;;5033915;28;20026;-66
2024/01/29 12:13:59;;;;;;;5.95;5.28;;;15.20;33.40;;;;;;5031342;28;20033;-68
2024/01/29 12:16:26;;;;;;;6.50;5.88;;;15.10;33.70;;;;;;5031684;28;20026;-67
2024/01/29 12:18:54;;;;;;;5.65;5.07;;;15.00;33.30;;;;;;5031784;28;20013;-66
2024/01/29 12:21:20;;;;;;;6.53;5.80;;;15.00;33.70;;;;;;5031937;28;20029;-65
2024/01/29 12:23:46;;;;;;;5.70;5.13;;;14.70;33.30;;;;;;5033515;28;20025;-65
2024/01/29 12:26:13;;;;;;;4.35;3.95;;;14.30;32.70;;;;;;5032004;28;20025;-67
2024/01/29 12:28:39;;;;;;;3.80;3.47;;;14.10;33.30;;;;;;5033165;28;20025;-67
2024/01/29 12:31:06;;;;;;;3.13;2.85;;;14.20;35.40;;;;;;5033781;28;20034;-67